Darwin, Australia
Current Conditions -  °F | °C
As of 7:30 PM on Friday 31 Oct 2014 (Local Time) from YPDN Reporting Station
Clear Clear  
Wind Chill: 84°   Ceiling: Unl
Heat Index: 90°   Visibility: 6mi
Dew Point: 72°   Wind: 12mph
Humidity: 66%   Direction: 310°NW
Pressure: 29.8"   Gusts: NA
Location:  12.46°S, 130.84°E
Report Text: YPDN 311030Z 31010KT CAVOK 29/22 Q1009
Loading
Personal Weather Stations






























Interactive Weather Map
Tropical Storm Tracking
New forecast layout! Learn more

10-Day Weather Forecast

Advertisements
Track Severe Weather on mobile